createdAt,value
2022-12-18T00:01:27.000Z,-4.67
2022-12-18T00:03:56.665Z,-4.80
2022-12-18T00:06:25.799Z,-5.01
2022-12-18T00:08:53.588Z,-5.12
2022-12-18T00:11:23.582Z,-5.20
2022-12-18T00:13:52.424Z,-5.25
2022-12-18T00:16:25.258Z,-5.18
2022-12-18T00:18:55.709Z,-5.16
2022-12-18T00:21:24.142Z,-5.24
2022-12-18T00:23:52.642Z,-5.26
2022-12-18T00:26:22.169Z,-5.18
2022-12-18T00:28:52.526Z,-5.20
2022-12-18T00:31:22.269Z,-5.18
2022-12-18T00:33:52.689Z,-5.13
2022-12-18T00:36:25.258Z,-5.14
2022-12-18T00:38:54.878Z,-5.09
2022-12-18T00:41:36.847Z,-5.07
2022-12-18T00:44:07.179Z,-5.10
2022-12-18T00:46:35.439Z,-5.13
2022-12-18T00:49:05.247Z,-5.13
2022-12-18T00:51:32.991Z,-5.15
2022-12-18T00:54:00.860Z,-5.12
2022-12-18T00:56:28.631Z,-5.11
2022-12-18T00:58:56.498Z,-5.15
2022-12-18T01:01:24.433Z,-5.19
2022-12-18T01:03:52.227Z,-5.16
2022-12-18T01:06:22.737Z,-5.22
2022-12-18T01:08:50.587Z,-5.18
2022-12-18T01:11:20.207Z,-5.13
2022-12-18T01:13:48.345Z,-5.06
2022-12-18T01:16:17.944Z,-5.13
2022-12-18T01:18:46.205Z,-5.19
2022-12-18T01:21:15.624Z,-5.16
2022-12-18T01:23:44.743Z,-5.17
2022-12-18T01:26:14.651Z,-5.31
2022-12-18T01:28:43.194Z,-5.34
2022-12-18T01:31:15.904Z,-5.29
2022-12-18T01:33:43.806Z,-5.19
2022-12-18T01:36:17.942Z,-5.28
2022-12-18T01:38:47.942Z,-5.36
2022-12-18T01:41:16.839Z,-5.38
2022-12-18T01:43:51.619Z,-5.35
2022-12-18T01:46:21.860Z,-5.37
2022-12-18T01:48:52.159Z,-5.43
2022-12-18T01:51:19.983Z,-5.49
2022-12-18T01:53:50.373Z,-5.56
2022-12-18T01:56:20.654Z,-5.62
2022-12-18T01:58:55.803Z,-5.66
2022-12-18T02:01:25.158Z,-5.68
2022-12-18T02:03:53.587Z,-5.73
2022-12-18T02:06:27.830Z,-5.77
2022-12-18T02:09:06.717Z,-5.84
2022-12-18T02:11:43.167Z,-5.84
2022-12-18T02:14:23.050Z,-5.79
2022-12-18T02:16:59.282Z,-5.78
2022-12-18T02:19:50.387Z,-5.77
2022-12-18T02:22:29.089Z,-5.74
2022-12-18T02:25:11.275Z,-5.74
2022-12-18T02:27:42.414Z,-5.73
2022-12-18T02:30:11.123Z,-5.74
2022-12-18T02:32:43.488Z,-5.74
2022-12-18T02:35:14.979Z,-5.78
2022-12-18T02:37:45.876Z,-5.80
2022-12-18T02:40:15.884Z,-5.81
2022-12-18T02:42:45.062Z,-5.86
2022-12-18T02:45:16.400Z,-5.88
2022-12-18T02:47:47.913Z,-5.89
2022-12-18T02:50:21.795Z,-5.89
2022-12-18T02:53:01.707Z,-5.86
2022-12-18T02:55:37.916Z,-5.86
2022-12-18T02:58:18.119Z,-5.86
2022-12-18T03:00:55.730Z,-5.83
2022-12-18T03:03:32.332Z,-5.81
2022-12-18T03:06:04.319Z,-5.82
2022-12-18T03:08:39.218Z,-5.85
2022-12-18T03:11:10.098Z,-5.92
2022-12-18T03:13:46.591Z,-5.99
2022-12-18T03:16:19.906Z,-6.07
2022-12-18T03:18:52.223Z,-6.10
2022-12-18T03:21:26.356Z,-6.13
2022-12-18T03:23:57.898Z,-6.16
2022-12-18T03:26:31.204Z,-6.16
2022-12-18T03:29:09.322Z,-6.17
2022-12-18T03:31:42.111Z,-6.14
2022-12-18T03:34:13.216Z,-6.11
2022-12-18T03:36:45.117Z,-6.09
2022-12-18T03:39:14.475Z,-6.10
2022-12-18T03:41:49.714Z,-6.12
2022-12-18T03:44:30.412Z,-6.12
2022-12-18T03:47:07.244Z,-6.14
2022-12-18T03:49:40.212Z,-6.18
2022-12-18T03:52:12.831Z,-6.19
2022-12-18T03:54:44.162Z,-6.23
2022-12-18T03:57:19.067Z,-6.24
2022-12-18T03:59:53.132Z,-6.22
2022-12-18T04:02:26.573Z,-6.20
2022-12-18T04:04:57.830Z,-6.22
2022-12-18T04:07:26.167Z,-6.33
2022-12-18T04:09:57.838Z,-6.34
2022-12-18T04:12:26.974Z,-6.34
2022-12-18T04:14:56.235Z,-6.31
2022-12-18T04:17:24.764Z,-6.33
2022-12-18T04:19:52.951Z,-6.38
2022-12-18T04:22:21.445Z,-6.40
2022-12-18T04:24:54.273Z,-6.43
2022-12-18T04:27:30.468Z,-6.45
2022-12-18T04:30:01.379Z,-6.48
2022-12-18T04:32:29.191Z,-6.51
2022-12-18T04:34:57.033Z,-6.46
2022-12-18T04:37:26.685Z,-6.40
2022-12-18T04:39:54.447Z,-6.37
2022-12-18T04:42:29.700Z,-6.34
2022-12-18T04:44:57.425Z,-6.36
2022-12-18T04:47:26.558Z,-6.32
2022-12-18T04:49:54.328Z,-6.34
2022-12-18T04:52:24.758Z,-6.43
2022-12-18T04:54:52.458Z,-6.56
2022-12-18T04:57:20.225Z,-6.64
2022-12-18T04:59:48.027Z,-6.70
2022-12-18T05:02:15.907Z,-6.73
2022-12-18T05:04:45.069Z,-6.77
2022-12-18T05:07:12.765Z,-6.76
2022-12-18T05:09:40.606Z,-6.78
2022-12-18T05:12:09.615Z,-6.77
2022-12-18T05:14:37.398Z,-6.77
2022-12-18T05:17:05.103Z,-6.79
2022-12-18T05:19:32.859Z,-6.76
2022-12-18T05:22:02.351Z,-6.75
2022-12-18T05:24:30.074Z,-6.75
2022-12-18T05:26:57.845Z,-6.74
2022-12-18T05:29:25.886Z,-6.74
2022-12-18T05:31:53.710Z,-6.76
2022-12-18T05:34:21.508Z,-6.75
2022-12-18T05:36:49.243Z,-6.73
2022-12-18T05:39:18.382Z,-6.74
2022-12-18T05:41:46.132Z,-6.71
2022-12-18T05:44:14.634Z,-6.68
2022-12-18T05:46:43.721Z,-6.63
2022-12-18T05:49:11.519Z,-6.66
2022-12-18T05:51:39.263Z,-6.66
2022-12-18T05:54:07.195Z,-6.68
2022-12-18T05:56:36.495Z,-6.70
2022-12-18T05:59:04.292Z,-6.70
2022-12-18T06:01:32.081Z,-6.67
2022-12-18T06:04:00.358Z,-6.65
2022-12-18T06:06:29.509Z,-6.65
2022-12-18T06:08:58.853Z,-6.65
2022-12-18T06:11:28.383Z,-6.66
2022-12-18T06:13:59.457Z,-6.69
2022-12-18T06:16:29.914Z,-6.71
2022-12-18T06:18:58.619Z,-6.71
2022-12-18T06:21:27.672Z,-6.72
2022-12-18T06:23:55.539Z,-6.74
2022-12-18T06:26:28.080Z,-6.74
2022-12-18T06:28:58.072Z,-6.73
2022-12-18T06:31:27.149Z,-6.74
2022-12-18T06:33:55.012Z,-6.72
2022-12-18T06:36:22.755Z,-6.73
2022-12-18T06:38:50.718Z,-6.77
2022-12-18T06:41:20.404Z,-6.77
2022-12-18T06:43:48.237Z,-6.80
2022-12-18T06:46:17.508Z,-6.81
2022-12-18T06:48:48.319Z,-6.80
2022-12-18T06:51:18.517Z,-6.80
2022-12-18T06:53:46.288Z,-6.80
2022-12-18T06:56:14.128Z,-6.83
2022-12-18T06:58:41.950Z,-6.84
2022-12-18T07:01:12.140Z,-6.84
2022-12-18T07:03:42.814Z,-6.88
2022-12-18T07:06:15.944Z,-6.92
2022-12-18T07:08:43.960Z,-6.96
2022-12-18T07:11:11.733Z,-6.97
2022-12-18T07:13:39.907Z,-6.97
2022-12-18T07:16:17.096Z,-6.98
2022-12-18T07:18:49.431Z,-7.02
2022-12-18T07:21:20.136Z,-6.99
2022-12-18T07:23:49.248Z,-7.01
2022-12-18T07:26:20.178Z,-6.99
2022-12-18T07:28:48.104Z,-6.97
2022-12-18T07:31:18.303Z,-6.96
2022-12-18T07:33:46.889Z,-6.96
2022-12-18T07:36:16.763Z,-6.95
2022-12-18T07:38:44.980Z,-6.95
2022-12-18T07:41:14.731Z,-6.98
2022-12-18T07:43:43.601Z,-6.94
2022-12-18T07:46:14.621Z,-6.90
2022-12-18T07:48:42.867Z,-6.87
2022-12-18T07:51:12.465Z,-6.83
2022-12-18T07:53:42.684Z,-6.76
2022-12-18T07:56:29.903Z,-6.72
2022-12-18T07:58:59.175Z,-6.68
2022-12-18T08:01:27.511Z,-6.63
2022-12-18T08:03:55.547Z,-6.56
2022-12-18T08:06:24.187Z,-6.48
2022-12-18T08:08:54.633Z,-6.40
2022-12-18T08:11:22.824Z,-6.31
2022-12-18T08:13:50.791Z,-6.20
2022-12-18T08:16:19.293Z,-6.09
2022-12-18T08:18:47.870Z,-6.06
2022-12-18T08:21:17.788Z,-5.94
2022-12-18T08:23:46.572Z,-5.88
2022-12-18T08:26:15.862Z,-5.80
2022-12-18T08:28:43.656Z,-5.74
2022-12-18T08:31:12.323Z,-5.63
2022-12-18T08:33:41.659Z,-5.53
2022-12-18T08:36:11.912Z,-5.48
2022-12-18T08:38:39.702Z,-5.52
2022-12-18T08:41:09.175Z,-5.41
2022-12-18T08:43:55.787Z,-5.29
2022-12-18T08:46:25.771Z,-5.25
2022-12-18T08:48:54.711Z,-5.27
2022-12-18T08:51:22.596Z,-5.24
2022-12-18T08:53:50.424Z,-5.19
2022-12-18T08:56:18.703Z,-5.23
2022-12-18T08:58:47.870Z,-5.15
2022-12-18T09:01:15.961Z,-5.05
2022-12-18T09:03:44.348Z,-4.92
2022-12-18T09:06:16.631Z,-4.71
2022-12-18T09:08:44.956Z,-4.52
2022-12-18T09:11:15.778Z,-4.46
2022-12-18T09:13:43.637Z,-4.39
2022-12-18T09:16:12.902Z,-4.34
2022-12-18T09:18:41.107Z,-4.24
2022-12-18T09:21:13.845Z,-4.09
2022-12-18T09:23:41.983Z,-4.01
2022-12-18T09:26:10.005Z,-3.86
2022-12-18T09:28:38.422Z,-3.73
2022-12-18T09:31:08.790Z,-3.68
2022-12-18T09:33:38.039Z,-3.76
2022-12-18T09:36:09.089Z,-3.87
2022-12-18T09:38:37.880Z,-3.75
2022-12-18T09:41:16.683Z,-3.71
2022-12-18T09:43:49.335Z,-3.68
2022-12-18T09:46:22.053Z,-3.62
2022-12-18T09:48:54.255Z,-3.56
2022-12-18T09:51:26.919Z,-3.42
2022-12-18T09:53:59.508Z,-3.30
2022-12-18T09:56:31.302Z,-3.29
2022-12-18T09:59:01.420Z,-3.21
2022-12-18T10:01:40.223Z,-3.12
2022-12-18T10:04:12.679Z,-3.08
2022-12-18T10:06:47.341Z,-3.11
2022-12-18T10:09:26.987Z,-2.98
2022-12-18T10:12:05.077Z,-2.88
2022-12-18T10:14:43.476Z,-2.85
2022-12-18T10:17:22.702Z,-2.74
2022-12-18T10:19:57.188Z,-2.63
2022-12-18T10:22:37.122Z,-2.56
2022-12-18T10:25:16.435Z,-2.60
2022-12-18T10:27:44.287Z,-2.56
2022-12-18T10:30:15.892Z,-2.56
2022-12-18T10:32:43.972Z,-2.60
2022-12-18T10:35:20.648Z,-2.67
2022-12-18T10:38:08.297Z,-2.64
2022-12-18T10:40:51.069Z,-2.58
2022-12-18T10:43:23.975Z,-2.50
2022-12-18T10:46:04.850Z,-2.51
2022-12-18T10:48:33.838Z,-2.57
2022-12-18T10:51:12.821Z,-2.44
2022-12-18T10:53:44.463Z,-2.35
2022-12-18T10:56:12.656Z,-2.26
2022-12-18T10:58:41.460Z,-2.20
2022-12-18T11:01:13.113Z,-2.12
2022-12-18T11:03:43.170Z,-2.10
2022-12-18T11:06:14.425Z,-2.05
2022-12-18T11:08:44.673Z,-2.03
2022-12-18T11:11:22.436Z,-2.04
2022-12-18T11:14:00.759Z,-2.05
2022-12-18T11:16:29.908Z,-2.06
2022-12-18T11:19:19.671Z,-2.02
2022-12-18T11:21:50.160Z,-1.91
2022-12-18T11:24:23.084Z,-1.91
2022-12-18T11:26:56.246Z,-1.94
2022-12-18T11:29:34.167Z,-1.86
2022-12-18T11:32:25.041Z,-1.87
2022-12-18T11:34:59.258Z,-1.77
2022-12-18T11:37:29.752Z,-1.64
2022-12-18T11:40:01.818Z,-1.59
2022-12-18T11:42:37.451Z,-1.56
2022-12-18T11:45:22.744Z,-1.55
2022-12-18T11:47:56.227Z,-1.51
2022-12-18T11:50:27.434Z,-1.50
2022-12-18T11:53:00.343Z,-1.50
2022-12-18T11:55:41.364Z,-1.40
2022-12-18T11:58:19.510Z,-1.32
2022-12-18T12:00:55.052Z,-1.25
2022-12-18T12:03:38.953Z,-1.22
2022-12-18T12:06:15.607Z,-1.21
2022-12-18T12:08:59.598Z,-1.29
2022-12-18T12:11:37.076Z,-1.26
2022-12-18T12:14:14.701Z,-1.24
2022-12-18T12:16:52.336Z,-1.33
2022-12-18T12:19:37.174Z,-1.26
2022-12-18T12:22:10.936Z,-1.23
2022-12-18T12:24:53.439Z,-1.18
2022-12-18T12:27:32.428Z,-1.11
2022-12-18T12:30:08.457Z,-1.06
2022-12-18T12:32:52.032Z,-1.05
2022-12-18T12:35:31.702Z,-1.07
2022-12-18T12:38:09.013Z,-1.06
2022-12-18T12:40:53.852Z,-1.06
2022-12-18T12:43:29.681Z,-1.01
2022-12-18T12:46:02.048Z,-1.01
2022-12-18T12:48:38.022Z,-0.95
2022-12-18T12:51:14.466Z,-0.91
2022-12-18T12:53:44.486Z,-0.90
2022-12-18T12:56:17.585Z,-0.90
2022-12-18T12:58:57.578Z,-0.87
2022-12-18T13:01:34.659Z,-0.87
2022-12-18T13:04:11.004Z,-0.95
2022-12-18T13:06:46.654Z,-0.89
2022-12-18T13:09:15.101Z,-0.84
2022-12-18T13:12:03.222Z,-0.79
2022-12-18T13:14:34.614Z,-0.75
2022-12-18T13:17:38.920Z,-0.75
2022-12-18T13:20:17.375Z,-0.74
2022-12-18T13:22:47.887Z,-0.67
2022-12-18T13:25:34.466Z,-0.58
2022-12-18T13:28:13.635Z,-0.57
2022-12-18T13:30:53.725Z,-0.54
2022-12-18T13:34:23.945Z,-0.57
2022-12-18T13:36:36.402Z,-0.57
2022-12-18T13:39:34.765Z,-0.61
2022-12-18T13:42:57.000Z,-0.66
2022-12-18T13:45:42.431Z,-0.67
2022-12-18T13:48:23.959Z,-0.71
2022-12-18T13:50:57.157Z,-0.75
2022-12-18T13:53:28.573Z,-0.72
2022-12-18T13:55:57.098Z,-0.74
2022-12-18T13:58:25.008Z,-0.82
2022-12-18T14:00:54.222Z,-0.81
2022-12-18T14:03:27.098Z,-0.80
2022-12-18T14:06:02.100Z,-0.77
2022-12-18T14:08:35.813Z,-0.75
2022-12-18T14:11:06.368Z,-0.78
2022-12-18T14:13:38.648Z,-0.78
2022-12-18T14:16:09.395Z,-0.82
2022-12-18T14:18:45.940Z,-0.75
2022-12-18T14:21:23.842Z,-0.78
2022-12-18T14:24:04.684Z,-0.76
2022-12-18T14:26:34.213Z,-0.73
2022-12-18T14:29:16.375Z,-0.69
2022-12-18T14:31:46.414Z,-0.67
2022-12-18T14:34:17.691Z,-0.70
2022-12-18T14:36:54.850Z,-0.71
2022-12-18T14:39:23.133Z,-0.67
2022-12-18T14:41:51.695Z,-0.67
2022-12-18T14:44:19.562Z,-0.61
2022-12-18T14:46:49.908Z,-0.60
2022-12-18T14:49:24.437Z,-0.61
2022-12-18T14:51:54.232Z,-0.67
2022-12-18T14:54:24.904Z,-0.71
2022-12-18T14:56:58.875Z,-0.70
2022-12-18T14:59:30.152Z,-0.71
2022-12-18T15:02:06.084Z,-0.69
2022-12-18T15:04:36.592Z,-0.69
2022-12-18T15:07:13.610Z,-0.75
2022-12-18T15:09:43.196Z,-0.81
2022-12-18T15:12:26.626Z,-0.83
2022-12-18T15:14:54.203Z,-0.82
2022-12-18T15:17:26.131Z,-0.80
2022-12-18T15:20:00.504Z,-0.82
2022-12-18T15:22:30.488Z,-0.82
2022-12-18T15:24:59.992Z,-0.82
2022-12-18T15:27:31.608Z,-0.85
2022-12-18T15:30:18.996Z,-0.88
2022-12-18T15:32:48.730Z,-0.86
2022-12-18T15:35:19.634Z,-0.79
2022-12-18T15:37:47.709Z,-0.82
2022-12-18T15:40:17.467Z,-0.81
2022-12-18T15:43:03.913Z,-0.83
2022-12-18T15:45:31.844Z,-0.85
2022-12-18T15:48:01.803Z,-0.88
2022-12-18T15:50:30.124Z,-0.89
2022-12-18T15:52:58.688Z,-0.88
2022-12-18T15:55:44.117Z,-0.88
2022-12-18T15:58:12.966Z,-0.87
2022-12-18T16:00:42.467Z,-0.85
2022-12-18T16:03:12.183Z,-0.87
2022-12-18T16:05:40.230Z,-0.89
2022-12-18T16:08:08.101Z,-0.88
2022-12-18T16:10:37.185Z,-0.83
2022-12-18T16:13:04.939Z,-0.88
2022-12-18T16:15:32.700Z,-0.85
2022-12-18T16:18:00.484Z,-0.84
2022-12-18T16:20:29.589Z,-0.85
2022-12-18T16:22:57.400Z,-0.83
2022-12-18T16:25:27.433Z,-0.83
2022-12-18T16:27:56.158Z,-0.82
2022-12-18T16:30:26.427Z,-0.79
2022-12-18T16:32:54.299Z,-0.77
2022-12-18T16:35:22.227Z,-0.78
2022-12-18T16:37:51.569Z,-0.82
2022-12-18T16:40:19.867Z,-0.85
2022-12-18T16:42:48.531Z,-0.84
2022-12-18T16:45:18.551Z,-0.87
2022-12-18T16:47:46.587Z,-0.87
2022-12-18T16:50:14.645Z,-0.85
2022-12-18T16:52:42.726Z,-0.88
2022-12-18T16:55:12.080Z,-0.88
2022-12-18T16:57:39.831Z,-0.88
2022-12-18T17:00:09.101Z,-0.91
2022-12-18T17:02:37.613Z,-0.91
2022-12-18T17:05:06.437Z,-0.93
2022-12-18T17:07:34.367Z,-0.94
2022-12-18T17:10:03.576Z,-0.95
2022-12-18T17:12:33.848Z,-0.94
2022-12-18T17:15:01.607Z,-0.91
2022-12-18T17:17:29.409Z,-0.91
2022-12-18T17:19:57.213Z,-0.90
2022-12-18T17:22:25.020Z,-0.89
2022-12-18T17:24:52.811Z,-0.92
2022-12-18T17:27:20.622Z,-0.94
2022-12-18T17:29:49.711Z,-0.93
2022-12-18T17:32:17.516Z,-0.91
2022-12-18T17:34:45.460Z,-0.89
2022-12-18T17:37:13.300Z,-0.88
2022-12-18T17:39:41.024Z,-0.87
2022-12-18T17:42:10.654Z,-0.88
2022-12-18T17:44:43.069Z,-0.89
2022-12-18T17:47:12.978Z,-0.87
2022-12-18T17:49:40.936Z,-0.91
2022-12-18T17:52:08.766Z,-0.94
2022-12-18T17:54:39.442Z,-0.94
2022-12-18T17:57:07.374Z,-0.94
2022-12-18T17:59:35.123Z,-0.95
2022-12-18T18:02:02.987Z,-0.94
2022-12-18T18:04:32.231Z,-0.93
2022-12-18T18:06:59.997Z,-0.91
2022-12-18T18:09:28.519Z,-0.92
2022-12-18T18:12:14.779Z,-0.89
2022-12-18T18:14:42.568Z,-0.90
2022-12-18T18:17:10.416Z,-0.90
2022-12-18T18:19:39.559Z,-0.90
2022-12-18T18:22:08.287Z,-0.88
2022-12-18T18:24:36.064Z,-0.89
2022-12-18T18:27:03.956Z,-0.87
2022-12-18T18:29:31.901Z,-0.86
2022-12-18T18:32:00.071Z,-0.83
2022-12-18T18:34:30.246Z,-0.80
2022-12-18T18:36:59.504Z,-0.77
2022-12-18T18:39:27.828Z,-0.77
2022-12-18T18:41:55.693Z,-0.78
2022-12-18T18:44:25.635Z,-0.71
2022-12-18T18:46:55.407Z,-0.68
2022-12-18T18:49:26.999Z,-0.68
2022-12-18T18:51:55.493Z,-0.66
2022-12-18T18:54:24.650Z,-0.68
2022-12-18T18:59:40.493Z,-0.62
2022-12-18T19:02:12.340Z,-0.60
2022-12-18T19:04:45.545Z,-0.57
2022-12-18T19:07:14.562Z,-0.58
2022-12-18T19:09:54.090Z,-0.55
2022-12-18T19:12:39.723Z,-0.50
2022-12-18T19:15:08.913Z,-0.44
2022-12-18T19:17:37.391Z,-0.41
2022-12-18T19:20:06.539Z,-0.37
2022-12-18T19:22:36.103Z,-0.35
2022-12-18T19:25:05.717Z,-0.35
2022-12-18T19:27:36.447Z,-0.36
2022-12-18T19:30:04.812Z,-0.37
2022-12-18T19:32:32.637Z,-0.34
2022-12-18T19:35:00.566Z,-0.32
2022-12-18T19:37:29.180Z,-0.28
2022-12-18T19:39:57.421Z,-0.23
2022-12-18T19:42:29.368Z,-0.19
2022-12-18T19:45:01.172Z,-0.19
2022-12-18T19:47:28.938Z,-0.16
2022-12-18T19:49:56.717Z,-0.14
2022-12-18T19:52:24.500Z,-0.09
2022-12-18T19:54:52.816Z,-0.14
2022-12-18T19:57:20.844Z,-0.17
2022-12-18T19:59:49.980Z,-0.17
2022-12-18T20:02:18.954Z,-0.25
2022-12-18T20:04:47.062Z,-0.35
2022-12-18T20:07:14.790Z,-0.54
2022-12-18T20:09:42.592Z,-0.73
2022-12-18T20:12:12.182Z,-0.80
2022-12-18T20:14:40.099Z,-0.91
2022-12-18T20:17:09.286Z,-0.90
2022-12-18T20:19:37.432Z,-0.93
2022-12-18T20:22:05.907Z,-1.01
2022-12-18T20:24:33.681Z,-1.07
2022-12-18T20:27:01.471Z,-1.07
2022-12-18T20:29:29.366Z,-1.06
2022-12-18T20:31:57.181Z,-1.08
2022-12-18T20:34:26.333Z,-1.11
2022-12-18T20:36:55.119Z,-1.17
2022-12-18T20:39:25.127Z,-1.21
2022-12-18T20:41:53.750Z,-1.20
2022-12-18T20:44:23.903Z,-1.24
2022-12-18T20:46:57.404Z,-1.30
2022-12-18T20:49:27.605Z,-1.28
2022-12-18T20:51:57.556Z,-1.32
2022-12-18T20:54:27.323Z,-1.32
2022-12-18T20:56:55.526Z,-1.35
2022-12-18T20:59:25.505Z,-1.34
2022-12-18T21:01:54.048Z,-1.32
2022-12-18T21:04:22.978Z,-1.29
2022-12-18T21:06:59.212Z,-1.31
2022-12-18T21:09:37.709Z,-1.26
2022-12-18T21:12:24.455Z,-1.24
2022-12-18T21:14:52.368Z,-1.23
2022-12-18T21:17:20.115Z,-1.21
2022-12-18T21:19:47.939Z,-1.19
2022-12-18T21:22:18.022Z,-1.18
2022-12-18T21:24:45.892Z,-1.17
2022-12-18T21:27:14.245Z,-1.16
2022-12-18T21:29:45.690Z,-1.17
2022-12-18T21:32:13.987Z,-1.15
2022-12-18T21:34:46.211Z,-1.12
2022-12-18T21:37:16.307Z,-1.11
2022-12-18T21:39:45.460Z,-1.11
2022-12-18T21:42:31.092Z,-1.11
2022-12-18T21:44:58.999Z,-1.12
2022-12-18T21:47:26.762Z,-1.09
2022-12-18T21:49:55.183Z,-1.08
2022-12-18T21:52:25.699Z,-1.06
2022-12-18T21:55:07.830Z,-1.03
2022-12-18T21:57:36.881Z,-1.04
2022-12-18T22:00:06.107Z,-1.01
2022-12-18T22:02:40.222Z,-0.99
2022-12-18T22:05:08.990Z,-0.98
2022-12-18T22:07:36.796Z,-0.97
2022-12-18T22:10:06.484Z,-0.96
2022-12-18T22:12:42.921Z,-0.95
2022-12-18T22:15:19.214Z,-0.94
2022-12-18T22:17:49.882Z,-0.94
2022-12-18T22:20:17.888Z,-0.93
2022-12-18T22:22:48.072Z,-0.92
2022-12-18T22:25:17.318Z,-0.93
2022-12-18T22:28:05.158Z,-0.93
2022-12-18T22:30:35.152Z,-0.89
2022-12-18T22:33:05.001Z,-0.88
2022-12-18T22:35:32.822Z,-0.87
2022-12-18T22:38:00.811Z,-0.85
2022-12-18T22:40:30.247Z,-0.83
2022-12-18T22:42:58.292Z,-0.80
2022-12-18T22:45:26.859Z,-0.78
2022-12-18T22:47:55.068Z,-0.79
2022-12-18T22:50:22.864Z,-0.77
2022-12-18T22:52:50.636Z,-0.78
2022-12-18T22:55:18.472Z,-0.76
2022-12-18T22:57:49.182Z,-0.75
2022-12-18T23:00:21.961Z,-0.73
2022-12-18T23:02:59.443Z,-0.71
2022-12-18T23:05:29.062Z,-0.69
2022-12-18T23:07:56.857Z,-0.67
2022-12-18T23:10:24.604Z,-0.65
2022-12-18T23:12:53.675Z,-0.61
2022-12-18T23:15:23.526Z,-0.60
2022-12-18T23:17:56.857Z,-0.57
2022-12-18T23:20:24.862Z,-0.53
2022-12-18T23:22:52.878Z,-0.53
2022-12-18T23:25:20.627Z,-0.52
2022-12-18T23:27:48.403Z,-0.50
2022-12-18T23:30:17.745Z,-0.50
2022-12-18T23:32:45.514Z,-0.48
2022-12-18T23:35:15.532Z,-0.48
2022-12-18T23:38:00.222Z,-0.47
2022-12-18T23:40:29.776Z,-0.44
2022-12-18T23:42:57.686Z,-0.45
2022-12-18T23:45:26.768Z,-0.44
2022-12-18T23:47:54.548Z,-0.43
2022-12-18T23:50:23.764Z,-0.42
2022-12-18T23:53:03.272Z,-0.40
2022-12-18T23:55:33.420Z,-0.40
2022-12-18T23:58:01.176Z,-0.36
